sensor_id;sensor_type;location;lat;lon;timestamp;pressure;altitude;pressure_sealevel;temperature;humidity
9415;BME280;4746;35.664;139.738;2024-03-25T00:00:06;100444.13;;;17.45;62.52
9415;BME280;4746;35.664;139.738;2024-03-25T00:02:39;100450.06;;;17.52;62.37
9415;BME280;4746;35.664;139.738;2024-03-25T00:05:08;100449.13;;;17.54;61.96
9415;BME280;4746;35.664;139.738;2024-03-25T00:07:39;100453.44;;;17.55;62.05
9415;BME280;4746;35.664;139.738;2024-03-25T00:10:09;100453.44;;;17.55;62.00
9415;BME280;4746;35.664;139.738;2024-03-25T00:12:36;100458.63;;;17.55;61.87
9415;BME280;4746;35.664;139.738;2024-03-25T00:15:04;100462.88;;;17.59;61.88
9415;BME280;4746;35.664;139.738;2024-03-25T00:17:32;100461.19;;;17.58;61.63
9415;BME280;4746;35.664;139.738;2024-03-25T00:19:59;100454.28;;;17.57;61.54
9415;BME280;4746;35.664;139.738;2024-03-25T00:22:27;100459.50;;;17.54;61.24
9415;BME280;4746;35.664;139.738;2024-03-25T00:24:54;100453.53;;;17.51;61.51
9415;BME280;4746;35.664;139.738;2024-03-25T00:27:22;100440.66;;;17.46;61.65
9415;BME280;4746;35.664;139.738;2024-03-25T00:29:49;100440.69;;;17.43;61.40
9415;BME280;4746;35.664;139.738;2024-03-25T00:32:17;100445.03;;;17.41;61.56
9415;BME280;4746;35.664;139.738;2024-03-25T00:34:44;100443.28;;;17.43;61.30
9415;BME280;4746;35.664;139.738;2024-03-25T00:37:12;100439.00;;;17.42;61.33
9415;BME280;4746;35.664;139.738;2024-03-25T00:39:40;100437.16;;;17.47;61.19
9415;BME280;4746;35.664;139.738;2024-03-25T00:42:07;100447.53;;;17.49;61.03
9415;BME280;4746;35.664;139.738;2024-03-25T00:44:35;100451.84;;;17.50;61.04
9415;BME280;4746;35.664;139.738;2024-03-25T00:47:02;100457.03;;;17.50;60.98
9415;BME280;4746;35.664;139.738;2024-03-25T00:49:32;100444.13;;;17.45;60.88
9415;BME280;4746;35.664;139.738;2024-03-25T00:52:03;100444.16;;;17.42;60.90
9415;BME280;4746;35.664;139.738;2024-03-25T00:54:30;100436.53;;;17.35;61.12
9415;BME280;4746;35.664;139.738;2024-03-25T00:56:58;100438.28;;;17.33;61.07
9415;BME280;4746;35.664;139.738;2024-03-25T00:59:25;100428.84;;;17.31;61.40
9415;BME280;4746;35.664;139.738;2024-03-25T01:01:53;100429.66;;;17.33;61.31
9415;BME280;4746;35.664;139.738;2024-03-25T01:04:20;100435.69;;;17.35;61.56
9415;BME280;4746;35.664;139.738;2024-03-25T01:06:48;100426.16;;;17.35;61.37
9415;BME280;4746;35.664;139.738;2024-03-25T01:09:15;100425.34;;;17.35;61.38
9415;BME280;4746;35.664;139.738;2024-03-25T01:11:43;100412.38;;;17.35;61.44
9415;BME280;4746;35.664;139.738;2024-03-25T01:14:10;100399.34;;;17.38;61.14
9415;BME280;4746;35.664;139.738;2024-03-25T01:16:38;100413.09;;;17.42;61.18
9415;BME280;4746;35.664;139.738;2024-03-25T01:19:05;100407.78;;;17.48;61.19
9415;BME280;4746;35.664;139.738;2024-03-25T01:21:33;100399.22;;;17.46;61.10
9415;BME280;4746;35.664;139.738;2024-03-25T01:24:01;100391.44;;;17.46;61.14
9415;BME280;4746;35.664;139.738;2024-03-25T01:26:29;100384.50;;;17.47;60.87
9415;BME280;4746;35.664;139.738;2024-03-25T01:28:56;100388.84;;;17.46;61.20
9415;BME280;4746;35.664;139.738;2024-03-25T01:31:26;100387.13;;;17.45;61.06
9415;BME280;4746;35.664;139.738;2024-03-25T01:33:54;100389.72;;;17.45;61.18
9415;BME280;4746;35.664;139.738;2024-03-25T01:36:22;100380.22;;;17.46;61.24
9415;BME280;4746;35.664;139.738;2024-03-25T01:38:49;100392.25;;;17.48;61.19
9415;BME280;4746;35.664;139.738;2024-03-25T01:41:22;100399.97;;;17.51;61.27
9415;BME280;4746;35.664;139.738;2024-03-25T01:43:50;100392.34;;;17.42;61.14
9415;BME280;4746;35.664;139.738;2024-03-25T01:46:18;100380.28;;;17.41;61.14
9415;BME280;4746;35.664;139.738;2024-03-25T01:48:50;100374.25;;;17.41;61.09
9415;BME280;4746;35.664;139.738;2024-03-25T01:51:21;100375.06;;;17.44;61.17
9415;BME280;4746;35.664;139.738;2024-03-25T01:53:52;100388.97;;;17.41;61.08
9415;BME280;4746;35.664;139.738;2024-03-25T01:56:22;100401.94;;;17.38;61.10
9415;BME280;4746;35.664;139.738;2024-03-25T01:58:51;100400.34;;;17.31;61.35
9415;BME280;4746;35.664;139.738;2024-03-25T02:01:20;100399.53;;;17.29;61.57
9415;BME280;4746;35.664;139.738;2024-03-25T02:03:48;100387.47;;;17.28;61.80
9415;BME280;4746;35.664;139.738;2024-03-25T02:06:18;100384.78;;;17.31;61.75
9415;BME280;4746;35.664;139.738;2024-03-25T02:08:47;100385.59;;;17.34;62.04
9415;BME280;4746;35.664;139.738;2024-03-25T02:11:16;100394.22;;;17.36;61.92
9415;BME280;4746;35.664;139.738;2024-03-25T02:13:45;100397.72;;;17.34;61.87
9415;BME280;4746;35.664;139.738;2024-03-25T02:16:13;100390.84;;;17.30;61.86
9415;BME280;4746;35.664;139.738;2024-03-25T02:18:41;100387.47;;;17.25;61.57
9415;BME280;4746;35.664;139.738;2024-03-25T02:21:08;100394.47;;;17.20;61.71
9415;BME280;4746;35.664;139.738;2024-03-25T02:23:38;100396.28;;;17.15;61.43
9415;BME280;4746;35.664;139.738;2024-03-25T02:26:06;100388.63;;;17.07;61.54
9415;BME280;4746;35.664;139.738;2024-03-25T02:28:33;100393.81;;;17.07;61.34
9415;BME280;4746;35.664;139.738;2024-03-25T02:31:05;100384.31;;;17.08;61.82
9415;BME280;4746;35.664;139.738;2024-03-25T02:33:34;100394.66;;;17.08;61.74
9415;BME280;4746;35.664;139.738;2024-03-25T02:36:02;100393.81;;;17.07;62.18
9415;BME280;4746;35.664;139.738;2024-03-25T02:38:30;100393.81;;;17.07;61.85
9415;BME280;4746;35.664;139.738;2024-03-25T02:40:59;100391.25;;;17.06;62.04
9415;BME280;4746;35.664;139.738;2024-03-25T02:43:28;100392.22;;;16.99;62.02
9415;BME280;4746;35.664;139.738;2024-03-25T02:45:55;100405.28;;;16.93;61.84
9415;BME280;4746;35.664;139.738;2024-03-25T02:48:23;100393.28;;;16.86;62.15
9415;BME280;4746;35.664;139.738;2024-03-25T02:50:50;100385.59;;;16.81;62.13
9415;BME280;4746;35.664;139.738;2024-03-25T02:53:18;100379.59;;;16.78;62.42
9415;BME280;4746;35.664;139.738;2024-03-25T02:55:49;100377.06;;;16.76;62.38
9415;BME280;4746;35.664;139.738;2024-03-25T02:58:19;100376.16;;;16.79;62.26
9415;BME280;4746;35.664;139.738;2024-03-25T03:00:46;100368.31;;;16.83;62.73
9415;BME280;4746;35.664;139.738;2024-03-25T03:03:14;100366.56;;;16.85;62.48
9415;BME280;4746;35.664;139.738;2024-03-25T03:05:43;100385.53;;;16.86;62.72
9415;BME280;4746;35.664;139.738;2024-03-25T03:08:10;100379.56;;;16.81;62.69
9415;BME280;4746;35.664;139.738;2024-03-25T03:10:38;100378.78;;;16.74;62.53
9415;BME280;4746;35.664;139.738;2024-03-25T03:13:05;100376.25;;;16.73;62.62
9415;BME280;4746;35.664;139.738;2024-03-25T03:15:33;100359.91;;;16.69;62.41
9415;BME280;4746;35.664;139.738;2024-03-25T03:18:00;100359.91;;;16.71;62.89
9415;BME280;4746;35.664;139.738;2024-03-25T03:20:28;100346.00;;;16.76;62.77
9415;BME280;4746;35.664;139.738;2024-03-25T03:22:56;100342.44;;;16.83;62.71
9415;BME280;4746;35.664;139.738;2024-03-25T03:25:28;100326.75;;;16.92;62.74
9415;BME280;4746;35.664;139.738;2024-03-25T03:27:59;100329.31;;;16.95;62.66
9415;BME280;4746;35.664;139.738;2024-03-25T03:30:26;100337.91;;;16.96;62.74
9415;BME280;4746;35.664;139.738;2024-03-25T03:32:54;100329.25;;;16.97;62.80
9415;BME280;4746;35.664;139.738;2024-03-25T03:35:22;100327.47;;;17.00;62.98
9415;BME280;4746;35.664;139.738;2024-03-25T03:37:50;100325.63;;;17.08;62.80
9415;BME280;4746;35.664;139.738;2024-03-25T03:40:17;100335.09;;;17.08;62.62
9415;BME280;4746;35.664;139.738;2024-03-25T03:42:45;100331.59;;;17.10;62.80
9415;BME280;4746;35.664;139.738;2024-03-25T03:45:12;100328.19;;;17.10;62.78
9415;BME280;4746;35.664;139.738;2024-03-25T03:47:40;100319.66;;;17.03;62.58
9415;BME280;4746;35.664;139.738;2024-03-25T03:50:10;100324.81;;;17.03;62.54
9415;BME280;4746;35.664;139.738;2024-03-25T03:52:38;100318.81;;;17.03;62.97
9415;BME280;4746;35.664;139.738;2024-03-25T03:55:06;100319.53;;;17.09;62.68
9415;BME280;4746;35.664;139.738;2024-03-25T03:57:34;100314.28;;;17.14;62.94
9415;BME280;4746;35.664;139.738;2024-03-25T04:00:02;100302.13;;;17.19;62.58
9415;BME280;4746;35.664;139.738;2024-03-25T04:02:29;100307.22;;;17.23;62.50
9415;BME280;4746;35.664;139.738;2024-03-25T04:04:57;100300.31;;;17.22;62.08
9415;BME280;4746;35.664;139.738;2024-03-25T04:07:24;100301.19;;;17.23;62.58
9415;BME280;4746;35.664;139.738;2024-03-25T04:09:57;100299.31;;;17.31;63.03
9415;BME280;4746;35.664;139.738;2024-03-25T04:12:26;100293.31;;;17.30;62.47
9415;BME280;4746;35.664;139.738;2024-03-25T04:14:54;100286.34;;;17.34;62.72
9415;BME280;4746;35.664;139.738;2024-03-25T04:17:24;100280.97;;;17.42;62.77
9415;BME280;4746;35.664;139.738;2024-03-25T04:19:52;100287.69;;;17.52;62.84
9415;BME280;4746;35.664;139.738;2024-03-25T04:22:20;100281.59;;;17.55;62.59
9415;BME280;4746;35.664;139.738;2024-03-25T04:24:48;100273.72;;;17.59;62.72
9415;BME280;4746;35.664;139.738;2024-03-25T04:27:15;100277.09;;;17.64;62.50
9415;BME280;4746;35.664;139.738;2024-03-25T04:29:43;100272.66;;;17.68;62.46
9415;BME280;4746;35.664;139.738;2024-03-25T04:32:10;100269.09;;;17.73;62.32
9415;BME280;4746;35.664;139.738;2024-03-25T04:34:38;100274.25;;;17.76;62.22
9415;BME280;4746;35.664;139.738;2024-03-25T04:37:06;100280.19;;;17.80;62.11
9415;BME280;4746;35.664;139.738;2024-03-25T04:39:33;100263.75;;;17.81;62.12
9415;BME280;4746;35.664;139.738;2024-03-25T04:42:01;100260.16;;;17.88;61.97
9415;BME280;4746;35.664;139.738;2024-03-25T04:44:30;100266.13;;;17.91;61.92
9415;BME280;4746;35.664;139.738;2024-03-25T04:46:57;100265.25;;;17.92;61.72
9415;BME280;4746;35.664;139.738;2024-03-25T04:49:25;100262.56;;;17.95;61.71
9415;BME280;4746;35.664;139.738;2024-03-25T04:51:52;100263.34;;;17.99;61.55
9415;BME280;4746;35.664;139.738;2024-03-25T04:54:21;100255.59;;;17.99;61.18
9415;BME280;4746;35.664;139.738;2024-03-25T04:56:48;100257.28;;;18.00;61.16
9415;BME280;4746;35.664;139.738;2024-03-25T04:59:16;100252.09;;;18.00;61.35
9415;BME280;4746;35.664;139.738;2024-03-25T05:01:43;100260.84;;;17.96;61.21
9415;BME280;4746;35.664;139.738;2024-03-25T05:04:11;100259.19;;;17.93;61.26
9415;BME280;4746;35.664;139.738;2024-03-25T05:06:38;100252.31;;;17.91;61.26
9415;BME280;4746;35.664;139.738;2024-03-25T05:09:06;100254.03;;;17.90;61.26
9415;BME280;4746;35.664;139.738;2024-03-25T05:11:34;100246.28;;;17.90;60.90
9415;BME280;4746;35.664;139.738;2024-03-25T05:14:01;100240.94;;;17.96;61.34
9415;BME280;4746;35.664;139.738;2024-03-25T05:16:29;100237.25;;;18.06;61.05
9415;BME280;4746;35.664;139.738;2024-03-25T05:18:57;100229.22;;;18.19;60.96
9415;BME280;4746;35.664;139.738;2024-03-25T05:21:27;100216.84;;;18.30;60.76
9415;BME280;4746;35.664;139.738;2024-03-25T05:23:54;100199.31;;;18.40;60.64
9415;BME280;4746;35.664;139.738;2024-03-25T05:26:22;100189.50;;;18.51;60.63
9415;BME280;4746;35.664;139.738;2024-03-25T05:28:57;100188.38;;;18.61;60.19
9415;BME280;4746;35.664;139.738;2024-03-25T05:31:25;100197.88;;;18.62;60.29
9415;BME280;4746;35.664;139.738;2024-03-25T05:33:52;100189.09;;;18.66;60.32
9415;BME280;4746;35.664;139.738;2024-03-25T05:36:20;100187.19;;;18.74;60.13
9415;BME280;4746;35.664;139.738;2024-03-25T05:38:47;100187.69;;;18.86;59.69
9415;BME280;4746;35.664;139.738;2024-03-25T05:41:15;100176.22;;;18.94;59.94
9415;BME280;4746;35.664;139.738;2024-03-25T05:43:42;100182.16;;;18.98;59.87
9415;BME280;4746;35.664;139.738;2024-03-25T05:46:10;100181.28;;;18.99;59.50
9415;BME280;4746;35.664;139.738;2024-03-25T05:48:38;100205.47;;;19.01;59.74
9415;BME280;4746;35.664;139.738;2024-03-25T05:51:07;100216.97;;;18.92;59.38
9415;BME280;4746;35.664;139.738;2024-03-25T05:53:39;100212.88;;;18.82;59.36
9415;BME280;4746;35.664;139.738;2024-03-25T05:56:11;100206.16;;;18.76;59.43
9415;BME280;4746;35.664;139.738;2024-03-25T05:58:38;100199.44;;;18.69;59.61
9415;BME280;4746;35.664;139.738;2024-03-25T06:01:06;100189.16;;;18.64;59.96
9415;BME280;4746;35.664;139.738;2024-03-25T06:03:34;100190.81;;;18.67;59.88
9415;BME280;4746;35.664;139.738;2024-03-25T06:06:03;100189.94;;;18.68;59.80
9415;BME280;4746;35.664;139.738;2024-03-25T06:08:31;100208.09;;;18.68;59.64
9415;BME280;4746;35.664;139.738;2024-03-25T06:11:02;100196.78;;;18.70;59.83
9415;BME280;4746;35.664;139.738;2024-03-25T06:13:29;100192.47;;;18.69;59.67
9415;BME280;4746;35.664;139.738;2024-03-25T06:15:57;100192.44;;;18.71;59.94
9415;BME280;4746;35.664;139.738;2024-03-25T06:18:27;100202.03;;;18.69;59.80
9415;BME280;4746;35.664;139.738;2024-03-25T06:20:55;100197.72;;;18.68;59.87
9415;BME280;4746;35.664;139.738;2024-03-25T06:23:30;100206.16;;;18.76;59.72
9415;BME280;4746;35.664;139.738;2024-03-25T06:25:58;100201.16;;;18.68;59.62
9415;BME280;4746;35.664;139.738;2024-03-25T06:28:25;100211.53;;;18.70;59.89
9415;BME280;4746;35.664;139.738;2024-03-25T06:30:53;100219.31;;;18.70;59.72
9415;BME280;4746;35.664;139.738;2024-03-25T06:33:45;100212.19;;;18.76;59.49
9415;BME280;4746;35.664;139.738;2024-03-25T06:36:33;100198.19;;;18.83;59.67
9415;BME280;4746;35.664;139.738;2024-03-25T06:39:02;100196.97;;;18.94;59.65
9415;BME280;4746;35.664;139.738;2024-03-25T06:41:35;100171.53;;;19.07;59.36
9415;BME280;4746;35.664;139.738;2024-03-25T06:44:03;100181.94;;;19.07;58.94
9415;BME280;4746;35.664;139.738;2024-03-25T06:46:32;100197.34;;;19.14;58.50
9415;BME280;4746;35.664;139.738;2024-03-25T06:49:02;100215.34;;;19.20;58.49
9415;BME280;4746;35.664;139.738;2024-03-25T06:51:32;100226.63;;;19.19;57.88
9415;BME280;4746;35.664;139.738;2024-03-25T06:54:04;100227.72;;;19.11;58.38
9415;BME280;4746;35.664;139.738;2024-03-25T06:56:35;100233.00;;;19.06;58.37
9415;BME280;4746;35.664;139.738;2024-03-25T06:59:04;100226.09;;;19.07;58.52
9415;BME280;4746;35.664;139.738;2024-03-25T07:01:33;100227.78;;;19.09;58.57
9415;BME280;4746;35.664;139.738;2024-03-25T07:04:04;100239.78;;;19.13;58.29
9415;BME280;4746;35.664;139.738;2024-03-25T07:06:31;100249.41;;;19.10;58.19
9415;BME280;4746;35.664;139.738;2024-03-25T07:09:00;100257.25;;;19.08;58.32
9415;BME280;4746;35.664;139.738;2024-03-25T07:11:28;100260.78;;;19.04;58.39
9415;BME280;4746;35.664;139.738;2024-03-25T07:13:59;100257.28;;;19.05;57.96
9415;BME280;4746;35.664;139.738;2024-03-25T07:16:29;100254.72;;;19.04;58.66
9415;BME280;4746;35.664;139.738;2024-03-25T07:18:58;100249.53;;;19.04;58.56
9415;BME280;4746;35.664;139.738;2024-03-25T07:21:26;100248.66;;;19.05;58.31
9415;BME280;4746;35.664;139.738;2024-03-25T07:23:53;100231.31;;;19.05;58.04
9415;BME280;4746;35.664;139.738;2024-03-25T07:26:21;100230.47;;;19.05;58.01
9415;BME280;4746;35.664;139.738;2024-03-25T07:28:50;100217.53;;;19.03;57.72
9415;BME280;4746;35.664;139.738;2024-03-25T07:31:18;100215.88;;;18.99;57.51
9415;BME280;4746;35.664;139.738;2024-03-25T07:33:45;100232.41;;;18.97;58.08
9415;BME280;4746;35.664;139.738;2024-03-25T07:36:13;100245.47;;;18.94;57.64
9415;BME280;4746;35.664;139.738;2024-03-25T07:38:44;100250.78;;;18.89;57.32
9415;BME280;4746;35.664;139.738;2024-03-25T07:41:12;100249.31;;;18.80;57.79
9415;BME280;4746;35.664;139.738;2024-03-25T07:43:43;100252.06;;;18.74;57.98
9415;BME280;4746;35.664;139.738;2024-03-25T07:46:12;100260.16;;;18.62;58.25
9415;BME280;4746;35.664;139.738;2024-03-25T07:48:40;100262.13;;;18.52;58.02
9415;BME280;4746;35.664;139.738;2024-03-25T07:51:09;100262.38;;;18.42;58.36
9415;BME280;4746;35.664;139.738;2024-03-25T07:53:36;100265.25;;;18.31;58.48
9415;BME280;4746;35.664;139.738;2024-03-25T07:56:05;100250.75;;;18.23;58.77
9415;BME280;4746;35.664;139.738;2024-03-25T07:58:36;100247.34;;;18.18;58.81
9415;BME280;4746;35.664;139.738;2024-03-25T08:01:04;100244.84;;;18.15;59.35
9415;BME280;4746;35.664;139.738;2024-03-25T08:03:34;100249.19;;;18.13;59.42
9415;BME280;4746;35.664;139.738;2024-03-25T08:06:04;100252.69;;;18.12;59.17
9415;BME280;4746;35.664;139.738;2024-03-25T08:08:31;100264.91;;;18.07;59.17
9415;BME280;4746;35.664;139.738;2024-03-25T08:10:59;100280.59;;;18.01;59.47
9415;BME280;4746;35.664;139.738;2024-03-25T08:13:26;100288.50;;;17.97;59.54
9415;BME280;4746;35.664;139.738;2024-03-25T08:15:56;100291.22;;;17.89;59.37
9415;BME280;4746;35.664;139.738;2024-03-25T08:18:24;100293.13;;;17.81;59.81
9415;BME280;4746;35.664;139.738;2024-03-25T08:20:51;100298.53;;;17.71;60.00
9415;BME280;4746;35.664;139.738;2024-03-25T08:23:19;100303.00;;;17.64;60.08
9415;BME280;4746;35.664;139.738;2024-03-25T08:25:46;100298.75;;;17.60;59.89
9415;BME280;4746;35.664;139.738;2024-03-25T08:28:16;100302.22;;;17.59;60.08
9415;BME280;4746;35.664;139.738;2024-03-25T08:30:46;100317.84;;;17.56;60.23
9415;BME280;4746;35.664;139.738;2024-03-25T08:33:14;100316.19;;;17.52;60.53
9415;BME280;4746;35.664;139.738;2024-03-25T08:35:44;100312.78;;;17.50;60.43
9415;BME280;4746;35.664;139.738;2024-03-25T08:38:12;100306.75;;;17.50;60.72
9415;BME280;4746;35.664;139.738;2024-03-25T08:40:39;100292.97;;;17.48;60.68
9415;BME280;4746;35.664;139.738;2024-03-25T08:43:07;100299.84;;;17.49;61.15
9415;BME280;4746;35.664;139.738;2024-03-25T08:45:35;100266.19;;;17.47;60.97
9415;BME280;4746;35.664;139.738;2024-03-25T08:48:02;100251.50;;;17.48;61.20
9415;BME280;4746;35.664;139.738;2024-03-25T08:50:30;100268.81;;;17.46;61.03
9415;BME280;4746;35.664;139.738;2024-03-25T08:52:57;100280.84;;;17.48;61.59
9415;BME280;4746;35.664;139.738;2024-03-25T08:55:25;100304.16;;;17.48;61.44
9415;BME280;4746;35.664;139.738;2024-03-25T08:57:54;100305.88;;;17.49;61.67
9415;BME280;4746;35.664;139.738;2024-03-25T09:00:23;100310.19;;;17.50;61.16
9415;BME280;4746;35.664;139.738;2024-03-25T09:02:54;100317.00;;;17.54;61.68
9415;BME280;4746;35.664;139.738;2024-03-25T09:05:22;100308.38;;;17.54;61.26
9415;BME280;4746;35.664;139.738;2024-03-25T09:07:53;100284.13;;;17.58;61.27
9415;BME280;4746;35.664;139.738;2024-03-25T09:10:21;100297.03;;;17.59;61.33
9415;BME280;4746;35.664;139.738;2024-03-25T09:13:06;100296.19;;;17.59;61.25
9415;BME280;4746;35.664;139.738;2024-03-25T09:15:35;100299.63;;;17.61;61.47
9415;BME280;4746;35.664;139.738;2024-03-25T09:18:02;100294.44;;;17.61;60.96
9415;BME280;4746;35.664;139.738;2024-03-25T09:20:30;100297.88;;;17.61;60.84
9415;BME280;4746;35.664;139.738;2024-03-25T09:22:57;100311.66;;;17.62;61.02
9415;BME280;4746;35.664;139.738;2024-03-25T09:25:25;100311.69;;;17.60;60.83
9415;BME280;4746;35.664;139.738;2024-03-25T09:27:53;100316.09;;;17.58;60.56
9415;BME280;4746;35.664;139.738;2024-03-25T09:30:22;100309.97;;;17.61;60.83
9415;BME280;4746;35.664;139.738;2024-03-25T09:32:50;100303.09;;;17.60;60.34
9415;BME280;4746;35.664;139.738;2024-03-25T09:35:17;100300.53;;;17.58;60.79
9415;BME280;4746;35.664;139.738;2024-03-25T09:37:45;100294.47;;;17.58;60.61
9415;BME280;4746;35.664;139.738;2024-03-25T09:40:13;100287.56;;;17.58;60.38
9415;BME280;4746;35.664;139.738;2024-03-25T09:42:49;100279.72;;;17.61;60.39
9415;BME280;4746;35.664;139.738;2024-03-25T09:45:24;100275.47;;;17.59;60.44
9415;BME280;4746;35.664;139.738;2024-03-25T09:47:53;100282.41;;;17.58;59.73
9415;BME280;4746;35.664;139.738;2024-03-25T09:50:22;100268.56;;;17.58;59.92
9415;BME280;4746;35.664;139.738;2024-03-25T09:52:51;100267.69;;;17.59;59.52
9415;BME280;4746;35.664;139.738;2024-03-25T09:55:19;100278.09;;;17.57;59.43
9415;BME280;4746;35.664;139.738;2024-03-25T09:57:47;100285.88;;;17.56;59.47
9415;BME280;4746;35.664;139.738;2024-03-25T10:00:14;100295.41;;;17.55;59.18
9415;BME280;4746;35.664;139.738;2024-03-25T10:02:43;100303.19;;;17.54;59.01
9415;BME280;4746;35.664;139.738;2024-03-25T10:05:11;100298.88;;;17.54;59.13
9415;BME280;4746;35.664;139.738;2024-03-25T10:07:38;100300.56;;;17.55;58.71
9415;BME280;4746;35.664;139.738;2024-03-25T10:10:07;100285.03;;;17.55;58.74
9415;BME280;4746;35.664;139.738;2024-03-25T10:12:37;100284.97;;;17.58;58.88
9415;BME280;4746;35.664;139.738;2024-03-25T10:15:05;100292.75;;;17.58;58.43
9415;BME280;4746;35.664;139.738;2024-03-25T10:17:33;100284.13;;;17.58;58.39
9415;BME280;4746;35.664;139.738;2024-03-25T10:20:01;100286.66;;;17.59;57.95
9415;BME280;4746;35.664;139.738;2024-03-25T10:22:30;100283.19;;;17.60;58.05
9415;BME280;4746;35.664;139.738;2024-03-25T10:24:57;100292.72;;;17.60;57.98
9415;BME280;4746;35.664;139.738;2024-03-25T10:27:25;100297.03;;;17.61;58.17
9415;BME280;4746;35.664;139.738;2024-03-25T10:29:54;100307.34;;;17.62;57.89
9415;BME280;4746;35.664;139.738;2024-03-25T10:32:25;100303.03;;;17.61;57.84
9415;BME280;4746;35.664;139.738;2024-03-25T10:34:55;100303.84;;;17.65;57.87
9415;BME280;4746;35.664;139.738;2024-03-25T10:37:26;100307.22;;;17.68;58.07
9415;BME280;4746;35.664;139.738;2024-03-25T10:40:04;100308.06;;;17.70;57.36
9415;BME280;4746;35.664;139.738;2024-03-25T10:42:33;100318.44;;;17.70;57.67
9415;BME280;4746;35.664;139.738;2024-03-25T10:45:02;100321.88;;;17.71;57.95
9415;BME280;4746;35.664;139.738;2024-03-25T10:47:31;100320.94;;;17.73;57.92
9415;BME280;4746;35.664;139.738;2024-03-25T10:50:08;100320.88;;;17.78;57.92
9415;BME280;4746;35.664;139.738;2024-03-25T10:52:38;100323.41;;;17.79;57.71
9415;BME280;4746;35.664;139.738;2024-03-25T10:55:08;100312.16;;;17.80;57.77
9415;BME280;4746;35.664;139.738;2024-03-25T10:57:37;100306.09;;;17.81;57.77
9415;BME280;4746;35.664;139.738;2024-03-25T11:00:06;100301.75;;;17.82;57.36
9415;BME280;4746;35.664;139.738;2024-03-25T11:02:35;100312.97;;;17.84;57.84
9415;BME280;4746;35.664;139.738;2024-03-25T11:05:03;100315.56;;;17.84;57.27
9415;BME280;4746;35.664;139.738;2024-03-25T11:07:33;100316.34;;;17.86;57.14
9415;BME280;4746;35.664;139.738;2024-03-25T11:10:08;100313.75;;;17.87;57.02
9415;BME280;4746;35.664;139.738;2024-03-25T11:12:38;100307.69;;;17.87;57.16
9415;BME280;4746;35.664;139.738;2024-03-25T11:15:08;100309.44;;;17.86;57.28
9415;BME280;4746;35.664;139.738;2024-03-25T11:17:37;100308.56;;;17.87;57.46
9415;BME280;4746;35.664;139.738;2024-03-25T11:20:17;100311.16;;;17.86;57.00
9415;BME280;4746;35.664;139.738;2024-03-25T11:22:54;100299.13;;;17.85;56.74
9415;BME280;4746;35.664;139.738;2024-03-25T11:25:22;100287.09;;;17.81;56.59
9415;BME280;4746;35.664;139.738;2024-03-25T11:27:49;100289.72;;;17.79;56.45
9415;BME280;4746;35.664;139.738;2024-03-25T11:30:17;100295.72;;;17.81;56.51
9415;BME280;4746;35.664;139.738;2024-03-25T11:32:51;100292.22;;;17.82;56.47
9415;BME280;4746;35.664;139.738;2024-03-25T11:35:20;100289.72;;;17.79;56.47
9415;BME280;4746;35.664;139.738;2024-03-25T11:37:48;100293.16;;;17.80;56.29
9415;BME280;4746;35.664;139.738;2024-03-25T11:40:17;100297.50;;;17.79;56.07
9415;BME280;4746;35.664;139.738;2024-03-25T11:42:46;100300.03;;;17.81;56.01
9415;BME280;4746;35.664;139.738;2024-03-25T11:45:19;100295.72;;;17.81;56.10
9415;BME280;4746;35.664;139.738;2024-03-25T11:47:49;100294.91;;;17.79;55.38
9415;BME280;4746;35.664;139.738;2024-03-25T11:50:19;100300.94;;;17.80;55.72
9415;BME280;4746;35.664;139.738;2024-03-25T11:52:47;100300.09;;;17.79;55.96
9415;BME280;4746;35.664;139.738;2024-03-25T11:55:19;100302.59;;;17.82;55.53
9415;BME280;4746;35.664;139.738;2024-03-25T11:57:46;100310.41;;;17.81;55.46
9415;BME280;4746;35.664;139.738;2024-03-25T12:00:21;100313.88;;;17.81;55.58
9415;BME280;4746;35.664;139.738;2024-03-25T12:02:49;100324.22;;;17.83;55.85
9415;BME280;4746;35.664;139.738;2024-03-25T12:05:16;100325.94;;;17.82;55.52
9415;BME280;4746;35.664;139.738;2024-03-25T12:07:44;100308.63;;;17.84;55.77
9415;BME280;4746;35.664;139.738;2024-03-25T12:10:12;100307.78;;;17.84;55.97
9415;BME280;4746;35.664;139.738;2024-03-25T12:12:57;100298.19;;;17.87;55.97
9415;BME280;4746;35.664;139.738;2024-03-25T12:15:25;100275.66;;;17.89;55.66
9415;BME280;4746;35.664;139.738;2024-03-25T12:17:53;100286.03;;;17.91;55.58
9415;BME280;4746;35.664;139.738;2024-03-25T12:20:21;100283.44;;;17.91;55.56
9415;BME280;4746;35.664;139.738;2024-03-25T12:22:49;100286.88;;;17.91;55.92
9415;BME280;4746;35.664;139.738;2024-03-25T12:25:20;100284.28;;;17.91;55.75
9415;BME280;4746;35.664;139.738;2024-03-25T12:27:47;100273.97;;;17.88;55.31
9415;BME280;4746;35.664;139.738;2024-03-25T12:30:15;100267.94;;;17.88;55.61
9415;BME280;4746;35.664;139.738;2024-03-25T12:32:46;100269.66;;;17.89;55.46
9415;BME280;4746;35.664;139.738;2024-03-25T12:35:18;100273.97;;;17.88;55.19
9415;BME280;4746;35.664;139.738;2024-03-25T12:37:47;100279.13;;;17.88;55.28
9415;BME280;4746;35.664;139.738;2024-03-25T12:40:28;100297.28;;;17.90;54.92
9415;BME280;4746;35.664;139.738;2024-03-25T12:42:58;100286.16;;;17.83;54.73
9415;BME280;4746;35.664;139.738;2024-03-25T12:45:26;100299.13;;;17.85;54.81
9415;BME280;4746;35.664;139.738;2024-03-25T12:47:56;100299.03;;;17.88;54.65
9415;BME280;4746;35.664;139.738;2024-03-25T12:50:24;100296.41;;;17.89;54.80
9415;BME280;4746;35.664;139.738;2024-03-25T12:52:52;100287.75;;;17.90;54.77
9415;BME280;4746;35.664;139.738;2024-03-25T12:55:19;100282.56;;;17.90;55.35
9415;BME280;4746;35.664;139.738;2024-03-25T12:57:47;100268.72;;;17.91;55.27